sensor_id;sensor_type;location;lat;lon;timestamp;P1;durP1;ratioP1;P2;durP2;ratioP2
8323;SDS011;4199;50.802;6.772;2024-01-11T00:02:10;52.40;;;26.80;;
8323;SDS011;4199;50.802;6.772;2024-01-11T00:04:37;50.63;;;26.43;;
8323;SDS011;4199;50.802;6.772;2024-01-11T00:07:22;48.63;;;26.10;;
8323;SDS011;4199;50.802;6.772;2024-01-11T00:09:49;52.97;;;26.50;;
8323;SDS011;4199;50.802;6.772;2024-01-11T00:12:16;45.47;;;25.13;;
8323;SDS011;4199;50.802;6.772;2024-01-11T00:14:43;57.27;;;26.90;;
8323;SDS011;4199;50.802;6.772;2024-01-11T00:17:10;50.83;;;27.10;;
8323;SDS011;4199;50.802;6.772;2024-01-11T00:19:37;54.77;;;27.57;;
8323;SDS011;4199;50.802;6.772;2024-01-11T00:22:04;58.07;;;28.40;;
8323;SDS011;4199;50.802;6.772;2024-01-11T00:24:31;51.03;;;28.13;;
8323;SDS011;4199;50.802;6.772;2024-01-11T00:27:05;56.30;;;29.63;;
8323;SDS011;4199;50.802;6.772;2024-01-11T00:29:51;56.27;;;28.43;;
8323;SDS011;4199;50.802;6.772;2024-01-11T00:32:18;55.10;;;29.23;;
8323;SDS011;4199;50.802;6.772;2024-01-11T00:34:45;58.47;;;29.73;;
8323;SDS011;4199;50.802;6.772;2024-01-11T00:37:30;62.77;;;30.50;;
8323;SDS011;4199;50.802;6.772;2024-01-11T00:39:58;55.87;;;29.20;;
8323;SDS011;4199;50.802;6.772;2024-01-11T00:42:24;60.33;;;30.87;;
8323;SDS011;4199;50.802;6.772;2024-01-11T00:44:51;59.60;;;30.80;;
8323;SDS011;4199;50.802;6.772;2024-01-11T00:47:18;62.83;;;32.07;;
8323;SDS011;4199;50.802;6.772;2024-01-11T00:49:45;70.47;;;34.93;;
8323;SDS011;4199;50.802;6.772;2024-01-11T00:52:12;74.27;;;37.77;;
8323;SDS011;4199;50.802;6.772;2024-01-11T00:54:40;70.80;;;36.43;;
8323;SDS011;4199;50.802;6.772;2024-01-11T00:57:07;72.57;;;36.20;;
8323;SDS011;4199;50.802;6.772;2024-01-11T00:59:34;62.53;;;33.07;;
8323;SDS011;4199;50.802;6.772;2024-01-11T01:02:01;58.97;;;31.00;;
8323;SDS011;4199;50.802;6.772;2024-01-11T01:04:28;57.70;;;30.17;;
8323;SDS011;4199;50.802;6.772;2024-01-11T01:06:55;56.27;;;30.33;;
8323;SDS011;4199;50.802;6.772;2024-01-11T01:09:22;54.77;;;28.53;;
8323;SDS011;4199;50.802;6.772;2024-01-11T01:11:49;54.50;;;29.07;;
8323;SDS011;4199;50.802;6.772;2024-01-11T01:14:16;53.27;;;28.40;;
8323;SDS011;4199;50.802;6.772;2024-01-11T01:16:43;55.90;;;28.60;;
8323;SDS011;4199;50.802;6.772;2024-01-11T01:19:10;51.70;;;27.87;;
8323;SDS011;4199;50.802;6.772;2024-01-11T01:21:37;56.50;;;28.20;;
8323;SDS011;4199;50.802;6.772;2024-01-11T01:24:06;55.20;;;28.70;;
8323;SDS011;4199;50.802;6.772;2024-01-11T01:26:32;54.27;;;28.33;;
8323;SDS011;4199;50.802;6.772;2024-01-11T01:29:00;51.93;;;27.00;;
8323;SDS011;4199;50.802;6.772;2024-01-11T01:31:27;48.03;;;26.10;;
8323;SDS011;4199;50.802;6.772;2024-01-11T01:33:55;50.67;;;27.47;;
8323;SDS011;4199;50.802;6.772;2024-01-11T01:36:22;56.87;;;28.70;;
8323;SDS011;4199;50.802;6.772;2024-01-11T01:38:48;51.77;;;27.57;;
8323;SDS011;4199;50.802;6.772;2024-01-11T01:41:15;60.00;;;27.40;;
8323;SDS011;4199;50.802;6.772;2024-01-11T01:43:42;51.60;;;27.23;;
8323;SDS011;4199;50.802;6.772;2024-01-11T01:46:09;48.73;;;26.10;;
8323;SDS011;4199;50.802;6.772;2024-01-11T01:48:36;50.87;;;26.67;;
8323;SDS011;4199;50.802;6.772;2024-01-11T01:51:03;52.30;;;26.60;;
8323;SDS011;4199;50.802;6.772;2024-01-11T01:53:43;50.20;;;25.97;;
8323;SDS011;4199;50.802;6.772;2024-01-11T01:56:10;47.30;;;25.27;;
8323;SDS011;4199;50.802;6.772;2024-01-11T01:58:38;55.40;;;27.57;;
8323;SDS011;4199;50.802;6.772;2024-01-11T02:01:05;45.80;;;24.93;;
8323;SDS011;4199;50.802;6.772;2024-01-11T02:03:37;52.73;;;27.33;;
8323;SDS011;4199;50.802;6.772;2024-01-11T02:06:05;54.17;;;27.00;;
8323;SDS011;4199;50.802;6.772;2024-01-11T02:08:33;52.50;;;26.10;;
8323;SDS011;4199;50.802;6.772;2024-01-11T02:11:01;48.93;;;26.47;;
8323;SDS011;4199;50.802;6.772;2024-01-11T02:13:28;54.13;;;27.37;;
8323;SDS011;4199;50.802;6.772;2024-01-11T02:15:55;49.50;;;25.73;;
8323;SDS011;4199;50.802;6.772;2024-01-11T02:18:22;51.43;;;26.07;;
8323;SDS011;4199;50.802;6.772;2024-01-11T02:20:49;53.97;;;26.93;;
8323;SDS011;4199;50.802;6.772;2024-01-11T02:23:20;54.63;;;27.40;;
8323;SDS011;4199;50.802;6.772;2024-01-11T02:25:48;53.17;;;27.33;;
8323;SDS011;4199;50.802;6.772;2024-01-11T02:28:15;51.27;;;26.53;;
8323;SDS011;4199;50.802;6.772;2024-01-11T02:30:42;54.27;;;27.17;;
8323;SDS011;4199;50.802;6.772;2024-01-11T02:33:09;54.80;;;27.77;;
8323;SDS011;4199;50.802;6.772;2024-01-11T02:35:37;55.77;;;26.73;;
8323;SDS011;4199;50.802;6.772;2024-01-11T02:38:10;51.60;;;26.33;;
8323;SDS011;4199;50.802;6.772;2024-01-11T02:40:37;50.10;;;26.37;;
8323;SDS011;4199;50.802;6.772;2024-01-11T02:43:08;50.47;;;25.70;;
8323;SDS011;4199;50.802;6.772;2024-01-11T02:45:37;51.50;;;25.60;;
8323;SDS011;4199;50.802;6.772;2024-01-11T02:48:04;53.60;;;28.03;;
8323;SDS011;4199;50.802;6.772;2024-01-11T02:50:32;48.30;;;26.23;;
8323;SDS011;4199;50.802;6.772;2024-01-11T02:52:59;54.27;;;26.93;;
8323;SDS011;4199;50.802;6.772;2024-01-11T02:55:26;51.20;;;26.43;;
8323;SDS011;4199;50.802;6.772;2024-01-11T02:57:53;52.23;;;26.73;;
8323;SDS011;4199;50.802;6.772;2024-01-11T03:00:20;52.83;;;26.40;;
8323;SDS011;4199;50.802;6.772;2024-01-11T03:02:47;52.00;;;26.67;;
8323;SDS011;4199;50.802;6.772;2024-01-11T03:05:14;49.53;;;26.37;;
8323;SDS011;4199;50.802;6.772;2024-01-11T03:07:41;60.10;;;27.67;;
8323;SDS011;4199;50.802;6.772;2024-01-11T03:10:08;53.77;;;27.27;;
8323;SDS011;4199;50.802;6.772;2024-01-11T03:12:35;48.93;;;26.77;;
8323;SDS011;4199;50.802;6.772;2024-01-11T03:15:03;52.67;;;26.23;;
8323;SDS011;4199;50.802;6.772;2024-01-11T03:17:30;51.10;;;26.77;;
8323;SDS011;4199;50.802;6.772;2024-01-11T03:19:57;50.27;;;26.93;;
8323;SDS011;4199;50.802;6.772;2024-01-11T03:22:26;53.60;;;27.97;;
8323;SDS011;4199;50.802;6.772;2024-01-11T03:24:53;51.63;;;26.67;;
8323;SDS011;4199;50.802;6.772;2024-01-11T03:27:20;52.57;;;27.03;;
8323;SDS011;4199;50.802;6.772;2024-01-11T03:29:47;49.10;;;26.03;;
8323;SDS011;4199;50.802;6.772;2024-01-11T03:32:16;53.80;;;26.87;;
8323;SDS011;4199;50.802;6.772;2024-01-11T03:34:43;48.60;;;25.17;;
8323;SDS011;4199;50.802;6.772;2024-01-11T03:37:10;54.43;;;26.57;;
8323;SDS011;4199;50.802;6.772;2024-01-11T03:39:37;48.90;;;25.37;;
8323;SDS011;4199;50.802;6.772;2024-01-11T03:42:04;49.73;;;26.70;;
8323;SDS011;4199;50.802;6.772;2024-01-11T03:44:31;52.73;;;26.10;;
8323;SDS011;4199;50.802;6.772;2024-01-11T03:46:58;49.93;;;26.53;;
8323;SDS011;4199;50.802;6.772;2024-01-11T03:49:26;52.30;;;26.43;;
8323;SDS011;4199;50.802;6.772;2024-01-11T03:51:53;50.73;;;25.70;;
8323;SDS011;4199;50.802;6.772;2024-01-11T03:54:20;47.20;;;24.97;;
8323;SDS011;4199;50.802;6.772;2024-01-11T03:56:47;49.77;;;25.40;;
8323;SDS011;4199;50.802;6.772;2024-01-11T03:59:15;50.67;;;25.37;;
8323;SDS011;4199;50.802;6.772;2024-01-11T04:01:42;53.00;;;26.67;;
8323;SDS011;4199;50.802;6.772;2024-01-11T04:04:10;52.50;;;25.50;;
8323;SDS011;4199;50.802;6.772;2024-01-11T04:06:37;49.53;;;25.40;;
8323;SDS011;4199;50.802;6.772;2024-01-11T04:09:04;47.90;;;24.83;;
8323;SDS011;4199;50.802;6.772;2024-01-11T04:11:31;46.73;;;24.33;;
8323;SDS011;4199;50.802;6.772;2024-01-11T04:13:58;51.67;;;25.47;;
8323;SDS011;4199;50.802;6.772;2024-01-11T04:16:25;48.47;;;25.20;;
8323;SDS011;4199;50.802;6.772;2024-01-11T04:18:52;56.47;;;26.97;;
8323;SDS011;4199;50.802;6.772;2024-01-11T04:21:26;51.53;;;26.33;;
8323;SDS011;4199;50.802;6.772;2024-01-11T04:23:55;49.50;;;26.60;;
8323;SDS011;4199;50.802;6.772;2024-01-11T04:26:23;51.33;;;25.53;;
8323;SDS011;4199;50.802;6.772;2024-01-11T04:28:51;52.37;;;26.67;;
8323;SDS011;4199;50.802;6.772;2024-01-11T04:31:18;54.83;;;27.83;;
8323;SDS011;4199;50.802;6.772;2024-01-11T04:33:46;53.70;;;26.77;;
8323;SDS011;4199;50.802;6.772;2024-01-11T04:36:13;52.00;;;26.57;;
8323;SDS011;4199;50.802;6.772;2024-01-11T04:38:40;49.20;;;25.97;;
8323;SDS011;4199;50.802;6.772;2024-01-11T04:41:11;50.13;;;25.20;;
8323;SDS011;4199;50.802;6.772;2024-01-11T04:43:39;56.70;;;28.00;;
8323;SDS011;4199;50.802;6.772;2024-01-11T04:46:20;55.60;;;28.07;;
8323;SDS011;4199;50.802;6.772;2024-01-11T04:48:48;53.33;;;25.63;;
8323;SDS011;4199;50.802;6.772;2024-01-11T04:51:16;46.17;;;24.63;;
8323;SDS011;4199;50.802;6.772;2024-01-11T04:53:49;51.67;;;26.80;;
8323;SDS011;4199;50.802;6.772;2024-01-11T04:56:16;51.70;;;26.77;;
8323;SDS011;4199;50.802;6.772;2024-01-11T04:58:44;55.50;;;27.43;;
8323;SDS011;4199;50.802;6.772;2024-01-11T05:01:12;52.80;;;27.60;;
8323;SDS011;4199;50.802;6.772;2024-01-11T05:03:40;56.80;;;26.60;;
8323;SDS011;4199;50.802;6.772;2024-01-11T05:06:07;50.57;;;24.83;;
8323;SDS011;4199;50.802;6.772;2024-01-11T05:08:35;51.83;;;26.53;;
8323;SDS011;4199;50.802;6.772;2024-01-11T05:11:02;53.80;;;26.03;;
8323;SDS011;4199;50.802;6.772;2024-01-11T05:13:29;53.03;;;26.63;;
8323;SDS011;4199;50.802;6.772;2024-01-11T05:15:56;54.20;;;26.27;;
8323;SDS011;4199;50.802;6.772;2024-01-11T05:18:24;48.63;;;25.23;;
8323;SDS011;4199;50.802;6.772;2024-01-11T05:20:51;54.50;;;26.57;;
8323;SDS011;4199;50.802;6.772;2024-01-11T05:23:18;47.47;;;25.80;;
8323;SDS011;4199;50.802;6.772;2024-01-11T05:25:45;51.27;;;26.20;;
8323;SDS011;4199;50.802;6.772;2024-01-11T05:28:12;55.80;;;28.20;;
8323;SDS011;4199;50.802;6.772;2024-01-11T05:30:40;57.83;;;29.23;;
8323;SDS011;4199;50.802;6.772;2024-01-11T05:33:07;56.57;;;28.07;;
8323;SDS011;4199;50.802;6.772;2024-01-11T05:35:35;58.13;;;27.73;;
8323;SDS011;4199;50.802;6.772;2024-01-11T05:38:02;57.53;;;28.90;;
8323;SDS011;4199;50.802;6.772;2024-01-11T05:40:47;73.67;;;37.87;;
8323;SDS011;4199;50.802;6.772;2024-01-11T05:43:17;58.80;;;30.03;;
8323;SDS011;4199;50.802;6.772;2024-01-11T05:45:44;53.60;;;26.03;;
8323;SDS011;4199;50.802;6.772;2024-01-11T05:48:14;49.33;;;26.07;;
8323;SDS011;4199;50.802;6.772;2024-01-11T05:50:51;85.53;;;42.77;;
8323;SDS011;4199;50.802;6.772;2024-01-11T05:53:18;61.50;;;30.33;;
8323;SDS011;4199;50.802;6.772;2024-01-11T05:55:47;62.70;;;31.83;;
8323;SDS011;4199;50.802;6.772;2024-01-11T05:58:17;59.47;;;30.53;;
8323;SDS011;4199;50.802;6.772;2024-01-11T06:00:44;55.10;;;29.47;;
8323;SDS011;4199;50.802;6.772;2024-01-11T06:03:12;58.83;;;29.97;;
8323;SDS011;4199;50.802;6.772;2024-01-11T06:05:39;63.00;;;33.63;;
8323;SDS011;4199;50.802;6.772;2024-01-11T06:08:07;54.33;;;28.23;;
8323;SDS011;4199;50.802;6.772;2024-01-11T06:10:37;56.87;;;28.40;;
8323;SDS011;4199;50.802;6.772;2024-01-11T06:13:05;53.20;;;27.67;;
8323;SDS011;4199;50.802;6.772;2024-01-11T06:15:32;56.43;;;27.63;;
8323;SDS011;4199;50.802;6.772;2024-01-11T06:17:59;53.10;;;26.23;;
8323;SDS011;4199;50.802;6.772;2024-01-11T06:20:46;55.67;;;26.37;;
8323;SDS011;4199;50.802;6.772;2024-01-11T06:23:13;52.73;;;26.63;;
8323;SDS011;4199;50.802;6.772;2024-01-11T06:25:40;51.90;;;26.70;;
8323;SDS011;4199;50.802;6.772;2024-01-11T06:28:08;51.67;;;26.00;;
8323;SDS011;4199;50.802;6.772;2024-01-11T06:30:36;54.83;;;26.53;;
8323;SDS011;4199;50.802;6.772;2024-01-11T06:33:04;51.70;;;26.23;;
8323;SDS011;4199;50.802;6.772;2024-01-11T06:35:31;58.53;;;27.90;;
8323;SDS011;4199;50.802;6.772;2024-01-11T06:37:58;51.07;;;26.10;;
8323;SDS011;4199;50.802;6.772;2024-01-11T06:40:26;58.80;;;28.87;;
8323;SDS011;4199;50.802;6.772;2024-01-11T06:42:53;61.40;;;27.67;;
8323;SDS011;4199;50.802;6.772;2024-01-11T06:45:21;57.67;;;27.90;;
8323;SDS011;4199;50.802;6.772;2024-01-11T06:47:48;55.50;;;28.03;;
8323;SDS011;4199;50.802;6.772;2024-01-11T06:50:16;55.17;;;27.77;;
8323;SDS011;4199;50.802;6.772;2024-01-11T06:52:44;61.57;;;27.47;;
8323;SDS011;4199;50.802;6.772;2024-01-11T06:55:11;60.27;;;29.33;;
8323;SDS011;4199;50.802;6.772;2024-01-11T06:57:41;65.00;;;30.53;;
8323;SDS011;4199;50.802;6.772;2024-01-11T07:00:08;61.70;;;31.43;;
8323;SDS011;4199;50.802;6.772;2024-01-11T07:02:36;64.30;;;31.43;;
8323;SDS011;4199;50.802;6.772;2024-01-11T07:05:03;60.07;;;28.87;;
8323;SDS011;4199;50.802;6.772;2024-01-11T07:07:31;59.63;;;29.43;;
8323;SDS011;4199;50.802;6.772;2024-01-11T07:09:59;57.77;;;28.90;;
8323;SDS011;4199;50.802;6.772;2024-01-11T07:12:26;65.03;;;30.30;;
8323;SDS011;4199;50.802;6.772;2024-01-11T07:14:54;61.10;;;29.87;;
8323;SDS011;4199;50.802;6.772;2024-01-11T07:17:21;58.90;;;28.07;;
8323;SDS011;4199;50.802;6.772;2024-01-11T07:19:49;66.60;;;28.47;;
8323;SDS011;4199;50.802;6.772;2024-01-11T07:27:39;65.30;;;31.80;;
8323;SDS011;4199;50.802;6.772;2024-01-11T07:30:07;70.10;;;33.30;;
8323;SDS011;4199;50.802;6.772;2024-01-11T07:32:36;66.10;;;31.83;;
8323;SDS011;4199;50.802;6.772;2024-01-11T07:35:03;60.10;;;29.27;;
8323;SDS011;4199;50.802;6.772;2024-01-11T07:37:37;61.53;;;28.83;;
8323;SDS011;4199;50.802;6.772;2024-01-11T07:40:08;60.77;;;29.63;;
8323;SDS011;4199;50.802;6.772;2024-01-11T07:42:37;63.97;;;31.77;;
8323;SDS011;4199;50.802;6.772;2024-01-11T07:45:06;69.43;;;31.43;;
8323;SDS011;4199;50.802;6.772;2024-01-11T07:47:34;64.57;;;32.00;;
8323;SDS011;4199;50.802;6.772;2024-01-11T07:50:01;65.53;;;32.50;;
8323;SDS011;4199;50.802;6.772;2024-01-11T07:52:30;81.37;;;39.33;;
8323;SDS011;4199;50.802;6.772;2024-01-11T07:54:57;67.00;;;33.07;;
8323;SDS011;4199;50.802;6.772;2024-01-11T07:57:26;63.20;;;31.57;;
8323;SDS011;4199;50.802;6.772;2024-01-11T07:59:53;68.13;;;31.70;;
8323;SDS011;4199;50.802;6.772;2024-01-11T08:02:22;66.80;;;32.10;;
8323;SDS011;4199;50.802;6.772;2024-01-11T08:04:50;65.87;;;31.57;;
8323;SDS011;4199;50.802;6.772;2024-01-11T08:07:17;60.67;;;29.70;;
8323;SDS011;4199;50.802;6.772;2024-01-11T08:09:44;61.43;;;29.97;;
8323;SDS011;4199;50.802;6.772;2024-01-11T08:12:12;66.77;;;31.60;;
8323;SDS011;4199;50.802;6.772;2024-01-11T08:14:42;64.57;;;32.03;;
8323;SDS011;4199;50.802;6.772;2024-01-11T08:17:09;67.57;;;33.03;;
8323;SDS011;4199;50.802;6.772;2024-01-11T08:19:37;67.47;;;33.50;;
8323;SDS011;4199;50.802;6.772;2024-01-11T08:22:23;64.00;;;32.47;;
8323;SDS011;4199;50.802;6.772;2024-01-11T08:24:53;96.10;;;45.53;;
8323;SDS011;4199;50.802;6.772;2024-01-11T08:27:20;63.77;;;30.97;;
8323;SDS011;4199;50.802;6.772;2024-01-11T08:29:47;64.23;;;33.33;;
8323;SDS011;4199;50.802;6.772;2024-01-11T08:32:14;62.33;;;31.27;;
8323;SDS011;4199;50.802;6.772;2024-01-11T08:34:56;62.50;;;31.70;;
8323;SDS011;4199;50.802;6.772;2024-01-11T08:37:23;58.07;;;29.57;;
8323;SDS011;4199;50.802;6.772;2024-01-11T08:39:50;64.80;;;32.63;;
8323;SDS011;4199;50.802;6.772;2024-01-11T08:42:16;66.13;;;32.23;;
8323;SDS011;4199;50.802;6.772;2024-01-11T08:44:44;60.37;;;31.80;;
8323;SDS011;4199;50.802;6.772;2024-01-11T08:47:10;69.03;;;31.67;;
8323;SDS011;4199;50.802;6.772;2024-01-11T08:49:38;64.67;;;31.23;;
8323;SDS011;4199;50.802;6.772;2024-01-11T08:52:05;63.20;;;31.77;;
8323;SDS011;4199;50.802;6.772;2024-01-11T08:54:32;60.87;;;31.60;;
8323;SDS011;4199;50.802;6.772;2024-01-11T08:57:17;60.77;;;30.20;;
8323;SDS011;4199;50.802;6.772;2024-01-11T08:59:44;63.13;;;31.30;;
8323;SDS011;4199;50.802;6.772;2024-01-11T09:02:11;62.97;;;32.87;;
8323;SDS011;4199;50.802;6.772;2024-01-11T09:04:44;76.43;;;37.07;;
8323;SDS011;4199;50.802;6.772;2024-01-11T09:07:11;72.07;;;35.80;;
8323;SDS011;4199;50.802;6.772;2024-01-11T09:09:37;71.57;;;35.67;;
8323;SDS011;4199;50.802;6.772;2024-01-11T09:12:16;75.23;;;37.50;;
8323;SDS011;4199;50.802;6.772;2024-01-11T09:14:42;70.90;;;35.47;;
8323;SDS011;4199;50.802;6.772;2024-01-11T09:17:28;73.83;;;35.17;;
8323;SDS011;4199;50.802;6.772;2024-01-11T09:19:55;106.77;;;52.17;;
8323;SDS011;4199;50.802;6.772;2024-01-11T09:22:22;68.40;;;35.50;;
8323;SDS011;4199;50.802;6.772;2024-01-11T09:24:49;74.60;;;35.13;;
8323;SDS011;4199;50.802;6.772;2024-01-11T09:27:15;66.97;;;35.50;;
8323;SDS011;4199;50.802;6.772;2024-01-11T09:29:45;72.10;;;34.50;;
8323;SDS011;4199;50.802;6.772;2024-01-11T09:32:12;68.30;;;34.97;;
8323;SDS011;4199;50.802;6.772;2024-01-11T09:34:39;74.33;;;35.50;;
8323;SDS011;4199;50.802;6.772;2024-01-11T09:37:05;69.77;;;35.03;;
8323;SDS011;4199;50.802;6.772;2024-01-11T09:39:32;67.57;;;33.60;;
8323;SDS011;4199;50.802;6.772;2024-01-11T09:42:00;68.53;;;34.07;;
8323;SDS011;4199;50.802;6.772;2024-01-11T09:44:35;67.27;;;34.30;;
8323;SDS011;4199;50.802;6.772;2024-01-11T09:47:04;69.43;;;35.67;;
8323;SDS011;4199;50.802;6.772;2024-01-11T09:49:33;65.57;;;36.23;;
8323;SDS011;4199;50.802;6.772;2024-01-11T09:52:00;70.27;;;35.03;;
8323;SDS011;4199;50.802;6.772;2024-01-11T09:54:28;73.87;;;36.67;;
8323;SDS011;4199;50.802;6.772;2024-01-11T09:56:55;64.77;;;35.27;;
8323;SDS011;4199;50.802;6.772;2024-01-11T09:59:25;67.20;;;35.87;;
8323;SDS011;4199;50.802;6.772;2024-01-11T10:01:52;65.30;;;34.97;;
8323;SDS011;4199;50.802;6.772;2024-01-11T10:04:19;68.00;;;36.03;;
8323;SDS011;4199;50.802;6.772;2024-01-11T10:06:45;71.13;;;35.87;;
8323;SDS011;4199;50.802;6.772;2024-01-11T10:09:12;66.53;;;35.97;;
8323;SDS011;4199;50.802;6.772;2024-01-11T10:11:39;68.00;;;35.23;;
8323;SDS011;4199;50.802;6.772;2024-01-11T10:14:06;66.70;;;36.07;;
8323;SDS011;4199;50.802;6.772;2024-01-11T10:16:33;86.57;;;44.17;;
8323;SDS011;4199;50.802;6.772;2024-01-11T10:18:59;69.77;;;35.37;;
8323;SDS011;4199;50.802;6.772;2024-01-11T10:21:26;67.43;;;35.73;;
8323;SDS011;4199;50.802;6.772;2024-01-11T10:23:53;60.90;;;33.97;;
8323;SDS011;4199;50.802;6.772;2024-01-11T10:26:20;61.03;;;34.00;;
8323;SDS011;4199;50.802;6.772;2024-01-11T10:29:00;65.40;;;34.67;;
8323;SDS011;4199;50.802;6.772;2024-01-11T10:31:29;76.30;;;44.23;;
8323;SDS011;4199;50.802;6.772;2024-01-11T10:33:56;62.67;;;34.23;;
8323;SDS011;4199;50.802;6.772;2024-01-11T10:36:24;67.67;;;35.87;;
8323;SDS011;4199;50.802;6.772;2024-01-11T10:38:51;67.63;;;36.73;;
8323;SDS011;4199;50.802;6.772;2024-01-11T10:41:38;60.70;;;34.10;;
8323;SDS011;4199;50.802;6.772;2024-01-11T10:44:12;62.10;;;33.87;;
8323;SDS011;4199;50.802;6.772;2024-01-11T10:46:44;60.20;;;32.93;;
8323;SDS011;4199;50.802;6.772;2024-01-11T10:49:12;67.83;;;36.03;;
8323;SDS011;4199;50.802;6.772;2024-01-11T10:51:42;66.30;;;34.97;;
8323;SDS011;4199;50.802;6.772;2024-01-11T10:54:11;64.93;;;33.20;;
8323;SDS011;4199;50.802;6.772;2024-01-11T10:56:38;67.03;;;34.67;;
8323;SDS011;4199;50.802;6.772;2024-01-11T10:59:07;63.10;;;34.47;;
8323;SDS011;4199;50.802;6.772;2024-01-11T11:01:34;65.90;;;35.20;;
8323;SDS011;4199;50.802;6.772;2024-01-11T11:04:01;57.20;;;32.80;;
8323;SDS011;4199;50.802;6.772;2024-01-11T11:06:28;58.17;;;33.23;;
8323;SDS011;4199;50.802;6.772;2024-01-11T11:08:56;61.83;;;33.67;;
8323;SDS011;4199;50.802;6.772;2024-01-11T11:11:24;70.70;;;36.50;;
8323;SDS011;4199;50.802;6.772;2024-01-11T11:13:51;56.67;;;32.97;;
8323;SDS011;4199;50.802;6.772;2024-01-11T11:16:18;66.03;;;32.93;;
8323;SDS011;4199;50.802;6.772;2024-01-11T11:18:46;66.03;;;34.53;;
8323;SDS011;4199;50.802;6.772;2024-01-11T11:21:12;67.87;;;35.60;;
8323;SDS011;4199;50.802;6.772;2024-01-11T11:23:50;66.57;;;36.17;;
8323;SDS011;4199;50.802;6.772;2024-01-11T11:26:16;59.57;;;34.27;;
8323;SDS011;4199;50.802;6.772;2024-01-11T11:28:43;64.43;;;35.17;;
8323;SDS011;4199;50.802;6.772;2024-01-11T11:31:11;79.80;;;41.27;;
8323;SDS011;4199;50.802;6.772;2024-01-11T11:33:40;69.83;;;37.23;;
8323;SDS011;4199;50.802;6.772;2024-01-11T11:36:09;58.13;;;35.53;;
8323;SDS011;4199;50.802;6.772;2024-01-11T11:38:38;64.00;;;36.70;;
8323;SDS011;4199;50.802;6.772;2024-01-11T11:41:05;66.40;;;36.27;;
8323;SDS011;4199;50.802;6.772;2024-01-11T11:43:31;66.03;;;36.87;;
8323;SDS011;4199;50.802;6.772;2024-01-11T11:45:58;62.83;;;36.60;;
8323;SDS011;4199;50.802;6.772;2024-01-11T11:51:11;64.73;;;36.00;;
8323;SDS011;4199;50.802;6.772;2024-01-11T11:53:43;65.90;;;36.50;;
8323;SDS011;4199;50.802;6.772;2024-01-11T11:56:12;65.87;;;36.67;;
8323;SDS011;4199;50.802;6.772;2024-01-11T11:58:41;67.73;;;36.67;;
8323;SDS011;4199;50.802;6.772;2024-01-11T12:01:09;62.23;;;36.00;;
8323;SDS011;4199;50.802;6.772;2024-01-11T12:03:37;61.63;;;35.60;;
8323;SDS011;4199;50.802;6.772;2024-01-11T12:06:05;64.40;;;36.67;;
8323;SDS011;4199;50.802;6.772;2024-01-11T12:08:33;64.97;;;36.57;;
8323;SDS011;4199;50.802;6.772;2024-01-11T12:11:00;69.33;;;37.70;;
8323;SDS011;4199;50.802;6.772;2024-01-11T12:13:28;62.43;;;35.87;;
8323;SDS011;4199;50.802;6.772;2024-01-11T12:15:55;58.60;;;34.60;;
8323;SDS011;4199;50.802;6.772;2024-01-11T12:18:21;66.50;;;36.40;;
8323;SDS011;4199;50.802;6.772;2024-01-11T12:20:48;64.23;;;35.77;;
8323;SDS011;4199;50.802;6.772;2024-01-11T12:23:15;70.50;;;35.43;;
8323;SDS011;4199;50.802;6.772;2024-01-11T12:25:42;62.23;;;35.80;;
8323;SDS011;4199;50.802;6.772;2024-01-11T12:28:09;67.17;;;36.03;;
8323;SDS011;4199;50.802;6.772;2024-01-11T12:30:35;63.80;;;36.27;;
8323;SDS011;4199;50.802;6.772;2024-01-11T12:33:02;62.27;;;36.00;;
8323;SDS011;4199;50.802;6.772;2024-01-11T12:35:30;61.20;;;36.87;;
8323;SDS011;4199;50.802;6.772;2024-01-11T12:38:01;60.43;;;35.63;;
8323;SDS011;4199;50.802;6.772;2024-01-11T12:40:33;58.00;;;34.63;;
8323;SDS011;4199;50.802;6.772;2024-01-11T12:43:07;63.80;;;38.77;;
8323;SDS011;4199;50.802;6.772;2024-01-11T12:45:34;58.70;;;36.23;;
8323;SDS011;4199;50.802;6.772;2024-01-11T12:48:01;59.60;;;35.50;;
8323;SDS011;4199;50.802;6.772;2024-01-11T12:50:30;62.40;;;36.20;;
8323;SDS011;4199;50.802;6.772;2024-01-11T12:53:13;65.37;;;37.13;;
8323;SDS011;4199;50.802;6.772;2024-01-11T12:56:01;74.47;;;37.63;;
8323;SDS011;4199;50.802;6.772;2024-01-11T12:58:30;60.23;;;34.77;;
8323;SDS011;4199;50.802;6.772;2024-01-11T13:00:56;72.73;;;36.07;;
8323;SDS011;4199;50.802;6.772;2024-01-11T13:03:24;59.13;;;35.67;;
8323;SDS011;4199;50.802;6.772;2024-01-11T13:05:51;59.47;;;35.80;;
8323;SDS011;4199;50.802;6.772;2024-01-11T13:08:18;61.53;;;36.30;;
8323;SDS011;4199;50.802;6.772;2024-01-11T13:10:46;59.47;;;35.33;;
8323;SDS011;4199;50.802;6.772;2024-01-11T13:13:14;57.97;;;34.20;;
8323;SDS011;4199;50.802;6.772;2024-01-11T13:15:41;62.57;;;35.57;;
8323;SDS011;4199;50.802;6.772;2024-01-11T13:18:08;58.37;;;33.83;;
8323;SDS011;4199;50.802;6.772;2024-01-11T13:20:34;60.43;;;33.37;;
8323;SDS011;4199;50.802;6.772;2024-01-11T13:25:57;66.73;;;34.40;;
8323;SDS011;4199;50.802;6.772;2024-01-11T13:28:24;63.43;;;33.50;;
8323;SDS011;4199;50.802;6.772;2024-01-11T13:30:50;62.17;;;33.43;;
8323;SDS011;4199;50.802;6.772;2024-01-11T13:33:17;61.87;;;35.07;;
8323;SDS011;4199;50.802;6.772;2024-01-11T13:35:45;57.80;;;32.67;;
8323;SDS011;4199;50.802;6.772;2024-01-11T13:38:12;61.10;;;32.80;;
8323;SDS011;4199;50.802;6.772;2024-01-11T13:40:39;61.17;;;33.53;;
8323;SDS011;4199;50.802;6.772;2024-01-11T13:43:06;55.47;;;32.27;;
8323;SDS011;4199;50.802;6.772;2024-01-11T13:45:33;58.43;;;32.83;;
8323;SDS011;4199;50.802;6.772;2024-01-11T13:48:03;55.80;;;31.70;;
8323;SDS011;4199;50.802;6.772;2024-01-11T13:50:30;57.50;;;33.13;;
8323;SDS011;4199;50.802;6.772;2024-01-11T13:52:57;59.53;;;32.67;;
8323;SDS011;4199;50.802;6.772;2024-01-11T13:55:24;60.40;;;36.67;;
8323;SDS011;4199;50.802;6.772;2024-01-11T13:58:09;67.17;;;36.10;;
8323;SDS011;4199;50.802;6.772;2024-01-11T14:00:36;56.00;;;33.80;;
8323;SDS011;4199;50.802;6.772;2024-01-11T14:03:04;65.60;;;33.60;;
8323;SDS011;4199;50.802;6.772;2024-01-11T14:05:32;61.67;;;34.33;;
8323;SDS011;4199;50.802;6.772;2024-01-11T14:07:59;58.47;;;33.83;;
8323;SDS011;4199;50.802;6.772;2024-01-11T14:10:27;61.17;;;32.77;;
8323;SDS011;4199;50.802;6.772;2024-01-11T14:12:54;58.60;;;34.23;;
8323;SDS011;4199;50.802;6.772;2024-01-11T14:15:21;65.23;;;34.27;;
8323;SDS011;4199;50.802;6.772;2024-01-11T14:17:47;67.40;;;34.37;;
8323;SDS011;4199;50.802;6.772;2024-01-11T14:20:15;58.17;;;34.63;;
8323;SDS011;4199;50.802;6.772;2024-01-11T14:23:01;62.40;;;34.30;;
8323;SDS011;4199;50.802;6.772;2024-01-11T14:25:28;63.47;;;34.87;;
8323;SDS011;4199;50.802;6.772;2024-01-11T14:27:56;57.37;;;33.73;;
8323;SDS011;4199;50.802;6.772;2024-01-11T14:30:22;57.80;;;33.70;;
8323;SDS011;4199;50.802;6.772;2024-01-11T14:32:49;56.83;;;34.43;;
8323;SDS011;4199;50.802;6.772;2024-01-11T14:35:16;61.70;;;33.37;;
8323;SDS011;4199;50.802;6.772;2024-01-11T14:37:44;55.87;;;33.87;;
8323;SDS011;4199;50.802;6.772;2024-01-11T14:40:11;62.60;;;33.90;;
8323;SDS011;4199;50.802;6.772;2024-01-11T14:42:38;63.00;;;34.57;;
8323;SDS011;4199;50.802;6.772;2024-01-11T14:45:05;67.03;;;35.10;;
8323;SDS011;4199;50.802;6.772;2024-01-11T14:47:32;55.30;;;33.00;;
8323;SDS011;4199;50.802;6.772;2024-01-11T14:49:59;65.53;;;36.23;;
8323;SDS011;4199;50.802;6.772;2024-01-11T14:52:26;61.77;;;34.83;;
8323;SDS011;4199;50.802;6.772;2024-01-11T14:54:52;61.47;;;34.17;;
8323;SDS011;4199;50.802;6.772;2024-01-11T14:57:19;62.67;;;35.97;;
8323;SDS011;4199;50.802;6.772;2024-01-11T14:59:47;63.90;;;36.00;;
8323;SDS011;4199;50.802;6.772;2024-01-11T15:02:13;64.57;;;36.03;;
8323;SDS011;4199;50.802;6.772;2024-01-11T15:04:40;62.20;;;36.77;;
8323;SDS011;4199;50.802;6.772;2024-01-11T15:07:07;63.30;;;37.00;;